sensor_id;sensor_type;location;lat;lon;timestamp;P1;durP1;ratioP1;P2;durP2;ratioP2
41568;SDS011;27283;52.504;13.358;2022-10-17T00:00:57;18.50;;;10.77;;
41568;SDS011;27283;52.504;13.358;2022-10-17T00:03:33;20.55;;;11.00;;
41568;SDS011;27283;52.504;13.358;2022-10-17T00:06:11;18.65;;;10.32;;
41568;SDS011;27283;52.504;13.358;2022-10-17T00:08:45;18.55;;;10.27;;
41568;SDS011;27283;52.504;13.358;2022-10-17T00:11:20;18.17;;;10.18;;
41568;SDS011;27283;52.504;13.358;2022-10-17T00:13:55;17.05;;;10.20;;
41568;SDS011;27283;52.504;13.358;2022-10-17T00:16:29;18.58;;;10.07;;
41568;SDS011;27283;52.504;13.358;2022-10-17T00:19:05;17.58;;;10.40;;
41568;SDS011;27283;52.504;13.358;2022-10-17T00:21:40;17.35;;;9.45;;
41568;SDS011;27283;52.504;13.358;2022-10-17T00:24:13;19.50;;;10.25;;
41568;SDS011;27283;52.504;13.358;2022-10-17T00:26:51;15.45;;;9.48;;
41568;SDS011;27283;52.504;13.358;2022-10-17T00:29:24;19.70;;;9.48;;
41568;SDS011;27283;52.504;13.358;2022-10-17T00:31:55;20.77;;;10.45;;
41568;SDS011;27283;52.504;13.358;2022-10-17T00:34:28;18.38;;;10.40;;
41568;SDS011;27283;52.504;13.358;2022-10-17T00:37:02;17.98;;;9.45;;
41568;SDS011;27283;52.504;13.358;2022-10-17T00:39:34;16.40;;;10.10;;
41568;SDS011;27283;52.504;13.358;2022-10-17T00:42:11;17.25;;;9.00;;
41568;SDS011;27283;52.504;13.358;2022-10-17T00:47:33;18.88;;;9.40;;
41568;SDS011;27283;52.504;13.358;2022-10-17T00:50:07;14.38;;;9.07;;
41568;SDS011;27283;52.504;13.358;2022-10-17T00:52:41;16.98;;;8.43;;
41568;SDS011;27283;52.504;13.358;2022-10-17T00:55:16;17.60;;;8.98;;
41568;SDS011;27283;52.504;13.358;2022-10-17T00:57:54;15.70;;;9.00;;
41568;SDS011;27283;52.504;13.358;2022-10-17T01:00:27;14.88;;;8.57;;
41568;SDS011;27283;52.504;13.358;2022-10-17T01:02:59;14.50;;;8.30;;
41568;SDS011;27283;52.504;13.358;2022-10-17T01:05:31;14.60;;;8.57;;
41568;SDS011;27283;52.504;13.358;2022-10-17T01:08:04;14.52;;;7.82;;
41568;SDS011;27283;52.504;13.358;2022-10-17T01:10:38;12.90;;;8.07;;
41568;SDS011;27283;52.504;13.358;2022-10-17T01:13:26;14.30;;;8.27;;
41568;SDS011;27283;52.504;13.358;2022-10-17T01:16:08;12.55;;;7.43;;
41568;SDS011;27283;52.504;13.358;2022-10-17T01:18:47;13.25;;;8.20;;
41568;SDS011;27283;52.504;13.358;2022-10-17T01:21:33;13.18;;;7.93;;
41568;SDS011;27283;52.504;13.358;2022-10-17T01:27:22;11.98;;;7.80;;
41568;SDS011;27283;52.504;13.358;2022-10-17T01:33:29;12.70;;;7.93;;
41568;SDS011;27283;52.504;13.358;2022-10-17T01:36:10;12.27;;;7.45;;
41568;SDS011;27283;52.504;13.358;2022-10-17T01:38:47;10.68;;;7.22;;
41568;SDS011;27283;52.504;13.358;2022-10-17T01:41:25;13.07;;;7.63;;
41568;SDS011;27283;52.504;13.358;2022-10-17T01:44:04;11.02;;;7.50;;
41568;SDS011;27283;52.504;13.358;2022-10-17T01:46:42;11.68;;;8.07;;
41568;SDS011;27283;52.504;13.358;2022-10-17T01:49:22;15.75;;;7.90;;
41568;SDS011;27283;52.504;13.358;2022-10-17T01:51:58;12.20;;;8.10;;
41568;SDS011;27283;52.504;13.358;2022-10-17T01:54:36;13.48;;;8.00;;
41568;SDS011;27283;52.504;13.358;2022-10-17T01:57:13;10.80;;;7.60;;
41568;SDS011;27283;52.504;13.358;2022-10-17T01:59:48;12.10;;;7.95;;
41568;SDS011;27283;52.504;13.358;2022-10-17T02:02:32;12.82;;;8.25;;
41568;SDS011;27283;52.504;13.358;2022-10-17T02:05:12;11.57;;;8.18;;
41568;SDS011;27283;52.504;13.358;2022-10-17T02:07:43;11.07;;;8.15;;
41568;SDS011;27283;52.504;13.358;2022-10-17T02:10:16;12.23;;;8.25;;
41568;SDS011;27283;52.504;13.358;2022-10-17T02:16:04;12.98;;;8.18;;
41568;SDS011;27283;52.504;13.358;2022-10-17T02:18:53;14.73;;;8.52;;
41568;SDS011;27283;52.504;13.358;2022-10-17T02:21:40;12.40;;;8.45;;
41568;SDS011;27283;52.504;13.358;2022-10-17T02:24:23;12.68;;;8.68;;
41568;SDS011;27283;52.504;13.358;2022-10-17T02:27:04;12.00;;;8.60;;
41568;SDS011;27283;52.504;13.358;2022-10-17T02:29:43;11.55;;;8.18;;
41568;SDS011;27283;52.504;13.358;2022-10-17T02:32:20;13.68;;;8.13;;
41568;SDS011;27283;52.504;13.358;2022-10-17T02:34:56;14.38;;;8.68;;
41568;SDS011;27283;52.504;13.358;2022-10-17T02:37:32;11.70;;;7.82;;
41568;SDS011;27283;52.504;13.358;2022-10-17T02:40:06;11.85;;;7.93;;
41568;SDS011;27283;52.504;13.358;2022-10-17T02:42:41;12.35;;;7.95;;
41568;SDS011;27283;52.504;13.358;2022-10-17T02:45:16;13.55;;;8.18;;
41568;SDS011;27283;52.504;13.358;2022-10-17T02:47:49;11.88;;;8.50;;
41568;SDS011;27283;52.504;13.358;2022-10-17T02:50:26;11.25;;;8.05;;
41568;SDS011;27283;52.504;13.358;2022-10-17T02:53:09;12.45;;;8.38;;
41568;SDS011;27283;52.504;13.358;2022-10-17T02:55:48;12.15;;;8.70;;
41568;SDS011;27283;52.504;13.358;2022-10-17T02:58:25;11.80;;;8.02;;
41568;SDS011;27283;52.504;13.358;2022-10-17T03:01:01;12.68;;;7.60;;
41568;SDS011;27283;52.504;13.358;2022-10-17T03:03:34;14.73;;;8.85;;
41568;SDS011;27283;52.504;13.358;2022-10-17T03:06:06;13.05;;;8.25;;
41568;SDS011;27283;52.504;13.358;2022-10-17T03:08:39;10.60;;;8.35;;
41568;SDS011;27283;52.504;13.358;2022-10-17T03:11:11;11.30;;;8.00;;
41568;SDS011;27283;52.504;13.358;2022-10-17T03:13:42;11.60;;;8.02;;
41568;SDS011;27283;52.504;13.358;2022-10-17T03:16:13;13.75;;;7.80;;
41568;SDS011;27283;52.504;13.358;2022-10-17T03:18:45;11.38;;;8.15;;
41568;SDS011;27283;52.504;13.358;2022-10-17T03:21:18;11.88;;;7.57;;
41568;SDS011;27283;52.504;13.358;2022-10-17T03:23:51;12.48;;;8.25;;
41568;SDS011;27283;52.504;13.358;2022-10-17T03:26:23;12.80;;;8.15;;
41568;SDS011;27283;52.504;13.358;2022-10-17T03:28:56;15.60;;;8.68;;
41568;SDS011;27283;52.504;13.358;2022-10-17T03:31:28;12.52;;;7.97;;
41568;SDS011;27283;52.504;13.358;2022-10-17T03:34:00;10.80;;;8.18;;
41568;SDS011;27283;52.504;13.358;2022-10-17T03:36:32;11.50;;;8.38;;
41568;SDS011;27283;52.504;13.358;2022-10-17T03:39:06;12.38;;;7.95;;
41568;SDS011;27283;52.504;13.358;2022-10-17T03:41:38;14.73;;;8.82;;
41568;SDS011;27283;52.504;13.358;2022-10-17T03:44:10;14.32;;;8.90;;
41568;SDS011;27283;52.504;13.358;2022-10-17T03:46:41;11.98;;;8.18;;
41568;SDS011;27283;52.504;13.358;2022-10-17T03:49:13;13.75;;;8.43;;
41568;SDS011;27283;52.504;13.358;2022-10-17T03:51:45;15.05;;;8.95;;
41568;SDS011;27283;52.504;13.358;2022-10-17T03:54:19;14.07;;;8.93;;
41568;SDS011;27283;52.504;13.358;2022-10-17T03:56:51;15.48;;;9.00;;
41568;SDS011;27283;52.504;13.358;2022-10-17T03:59:24;13.32;;;8.48;;
41568;SDS011;27283;52.504;13.358;2022-10-17T04:01:55;13.27;;;8.90;;
41568;SDS011;27283;52.504;13.358;2022-10-17T04:04:27;13.85;;;8.57;;
41568;SDS011;27283;52.504;13.358;2022-10-17T04:06:59;13.13;;;9.60;;
41568;SDS011;27283;52.504;13.358;2022-10-17T04:09:33;14.75;;;9.05;;
41568;SDS011;27283;52.504;13.358;2022-10-17T04:12:04;16.02;;;9.02;;
41568;SDS011;27283;52.504;13.358;2022-10-17T04:14:36;13.77;;;9.70;;
41568;SDS011;27283;52.504;13.358;2022-10-17T04:17:08;15.23;;;9.60;;
41568;SDS011;27283;52.504;13.358;2022-10-17T04:19:39;12.98;;;10.32;;
41568;SDS011;27283;52.504;13.358;2022-10-17T04:22:11;17.15;;;9.73;;
41568;SDS011;27283;52.504;13.358;2022-10-17T04:24:45;17.00;;;10.10;;
41568;SDS011;27283;52.504;13.358;2022-10-17T04:27:18;15.80;;;10.55;;
41568;SDS011;27283;52.504;13.358;2022-10-17T04:29:49;14.40;;;10.07;;
41568;SDS011;27283;52.504;13.358;2022-10-17T04:32:21;15.63;;;10.63;;
41568;SDS011;27283;52.504;13.358;2022-10-17T04:34:53;13.57;;;10.15;;
41568;SDS011;27283;52.504;13.358;2022-10-17T04:37:25;17.35;;;11.27;;
41568;SDS011;27283;52.504;13.358;2022-10-17T04:40:02;17.40;;;10.75;;
41568;SDS011;27283;52.504;13.358;2022-10-17T04:42:34;14.88;;;10.10;;
41568;SDS011;27283;52.504;13.358;2022-10-17T04:47:43;15.38;;;10.75;;
41568;SDS011;27283;52.504;13.358;2022-10-17T04:50:14;18.40;;;11.07;;
41568;SDS011;27283;52.504;13.358;2022-10-17T04:52:50;15.05;;;10.82;;
41568;SDS011;27283;52.504;13.358;2022-10-17T04:55:26;15.25;;;10.55;;
41568;SDS011;27283;52.504;13.358;2022-10-17T04:57:59;16.52;;;10.27;;
41568;SDS011;27283;52.504;13.358;2022-10-17T05:00:30;17.40;;;10.43;;
41568;SDS011;27283;52.504;13.358;2022-10-17T05:03:04;20.20;;;10.85;;
41568;SDS011;27283;52.504;13.358;2022-10-17T05:05:39;15.30;;;10.63;;
41568;SDS011;27283;52.504;13.358;2022-10-17T05:08:13;15.93;;;10.93;;
41568;SDS011;27283;52.504;13.358;2022-10-17T05:10:50;16.98;;;11.40;;
41568;SDS011;27283;52.504;13.358;2022-10-17T05:13:22;18.88;;;11.70;;
41568;SDS011;27283;52.504;13.358;2022-10-17T05:15:57;17.13;;;11.57;;
41568;SDS011;27283;52.504;13.358;2022-10-17T05:18:29;19.15;;;11.70;;
41568;SDS011;27283;52.504;13.358;2022-10-17T05:21:01;23.05;;;11.70;;
41568;SDS011;27283;52.504;13.358;2022-10-17T05:23:33;19.17;;;12.93;;
41568;SDS011;27283;52.504;13.358;2022-10-17T05:26:07;18.38;;;12.38;;
41568;SDS011;27283;52.504;13.358;2022-10-17T05:28:42;18.70;;;12.10;;
41568;SDS011;27283;52.504;13.358;2022-10-17T05:31:14;20.50;;;11.85;;
41568;SDS011;27283;52.504;13.358;2022-10-17T05:33:46;22.10;;;12.02;;
41568;SDS011;27283;52.504;13.358;2022-10-17T05:36:20;18.80;;;12.00;;
41568;SDS011;27283;52.504;13.358;2022-10-17T05:38:55;19.77;;;11.85;;
41568;SDS011;27283;52.504;13.358;2022-10-17T05:41:29;17.70;;;12.30;;
41568;SDS011;27283;52.504;13.358;2022-10-17T05:44:01;18.45;;;12.45;;
41568;SDS011;27283;52.504;13.358;2022-10-17T05:46:33;19.98;;;13.25;;
41568;SDS011;27283;52.504;13.358;2022-10-17T05:49:08;22.27;;;12.65;;
41568;SDS011;27283;52.504;13.358;2022-10-17T05:51:58;16.73;;;11.82;;
41568;SDS011;27283;52.504;13.358;2022-10-17T05:54:31;17.45;;;12.30;;
41568;SDS011;27283;52.504;13.358;2022-10-17T05:57:05;19.70;;;11.95;;
41568;SDS011;27283;52.504;13.358;2022-10-17T05:59:38;15.82;;;10.63;;
41568;SDS011;27283;52.504;13.358;2022-10-17T06:02:10;17.17;;;11.82;;
41568;SDS011;27283;52.504;13.358;2022-10-17T06:04:43;17.65;;;10.75;;
41568;SDS011;27283;52.504;13.358;2022-10-17T06:07:16;15.27;;;10.27;;
41568;SDS011;27283;52.504;13.358;2022-10-17T06:09:48;14.95;;;10.25;;
41568;SDS011;27283;52.504;13.358;2022-10-17T06:12:23;16.02;;;9.55;;
41568;SDS011;27283;52.504;13.358;2022-10-17T06:14:56;17.63;;;9.98;;
41568;SDS011;27283;52.504;13.358;2022-10-17T06:17:29;14.73;;;9.75;;
41568;SDS011;27283;52.504;13.358;2022-10-17T06:20:02;13.43;;;10.02;;
41568;SDS011;27283;52.504;13.358;2022-10-17T06:22:34;14.68;;;9.68;;
41568;SDS011;27283;52.504;13.358;2022-10-17T06:25:07;15.73;;;8.75;;
41568;SDS011;27283;52.504;13.358;2022-10-17T06:27:42;14.82;;;9.35;;
41568;SDS011;27283;52.504;13.358;2022-10-17T06:30:15;16.38;;;9.90;;
41568;SDS011;27283;52.504;13.358;2022-10-17T06:32:47;13.73;;;9.45;;
41568;SDS011;27283;52.504;13.358;2022-10-17T06:35:20;14.15;;;8.98;;
41568;SDS011;27283;52.504;13.358;2022-10-17T06:37:52;17.08;;;10.15;;
41568;SDS011;27283;52.504;13.358;2022-10-17T06:40:25;12.90;;;9.23;;
41568;SDS011;27283;52.504;13.358;2022-10-17T06:43:00;15.35;;;8.98;;
41568;SDS011;27283;52.504;13.358;2022-10-17T06:45:31;14.55;;;9.13;;
41568;SDS011;27283;52.504;13.358;2022-10-17T06:48:04;13.70;;;9.05;;
41568;SDS011;27283;52.504;13.358;2022-10-17T06:50:36;12.38;;;8.50;;
41568;SDS011;27283;52.504;13.358;2022-10-17T06:53:08;13.38;;;8.75;;
41568;SDS011;27283;52.504;13.358;2022-10-17T06:55:39;15.93;;;9.23;;
41568;SDS011;27283;52.504;13.358;2022-10-17T06:58:14;17.13;;;11.20;;
41568;SDS011;27283;52.504;13.358;2022-10-17T07:00:46;12.48;;;8.05;;
41568;SDS011;27283;52.504;13.358;2022-10-17T07:03:17;13.02;;;8.50;;
41568;SDS011;27283;52.504;13.358;2022-10-17T07:05:52;13.93;;;8.75;;
41568;SDS011;27283;52.504;13.358;2022-10-17T07:08:23;10.52;;;8.00;;
41568;SDS011;27283;52.504;13.358;2022-10-17T07:10:56;14.07;;;7.93;;
41568;SDS011;27283;52.504;13.358;2022-10-17T07:13:30;14.95;;;7.93;;
41568;SDS011;27283;52.504;13.358;2022-10-17T07:16:06;12.82;;;7.45;;
41568;SDS011;27283;52.504;13.358;2022-10-17T07:18:38;9.40;;;7.25;;
41568;SDS011;27283;52.504;13.358;2022-10-17T07:21:10;10.25;;;7.18;;
41568;SDS011;27283;52.504;13.358;2022-10-17T07:23:42;11.63;;;7.75;;
41568;SDS011;27283;52.504;13.358;2022-10-17T07:26:17;11.73;;;7.07;;
41568;SDS011;27283;52.504;13.358;2022-10-17T07:28:53;12.65;;;7.30;;
41568;SDS011;27283;52.504;13.358;2022-10-17T07:31:25;12.18;;;7.07;;
41568;SDS011;27283;52.504;13.358;2022-10-17T07:33:58;11.05;;;6.63;;
41568;SDS011;27283;52.504;13.358;2022-10-17T07:36:31;10.50;;;6.75;;
41568;SDS011;27283;52.504;13.358;2022-10-17T07:39:03;14.00;;;7.15;;
41568;SDS011;27283;52.504;13.358;2022-10-17T07:41:36;10.52;;;6.35;;
41568;SDS011;27283;52.504;13.358;2022-10-17T07:44:11;13.27;;;6.20;;
41568;SDS011;27283;52.504;13.358;2022-10-17T07:46:44;8.65;;;6.20;;
41568;SDS011;27283;52.504;13.358;2022-10-17T07:49:17;15.75;;;6.50;;
41568;SDS011;27283;52.504;13.358;2022-10-17T07:51:49;11.40;;;5.97;;
41568;SDS011;27283;52.504;13.358;2022-10-17T07:54:22;8.73;;;5.55;;
41568;SDS011;27283;52.504;13.358;2022-10-17T07:56:55;10.05;;;5.60;;
41568;SDS011;27283;52.504;13.358;2022-10-17T07:59:31;12.02;;;5.70;;
41568;SDS011;27283;52.504;13.358;2022-10-17T08:02:04;8.80;;;5.28;;
41568;SDS011;27283;52.504;13.358;2022-10-17T08:04:38;7.88;;;5.10;;
41568;SDS011;27283;52.504;13.358;2022-10-17T08:07:10;7.90;;;4.97;;
41568;SDS011;27283;52.504;13.358;2022-10-17T08:09:52;7.15;;;4.72;;
41568;SDS011;27283;52.504;13.358;2022-10-17T08:12:24;8.52;;;5.10;;
41568;SDS011;27283;52.504;13.358;2022-10-17T08:15:02;8.68;;;4.88;;
41568;SDS011;27283;52.504;13.358;2022-10-17T08:17:38;8.27;;;4.20;;
41568;SDS011;27283;52.504;13.358;2022-10-17T08:20:10;9.52;;;5.68;;
41568;SDS011;27283;52.504;13.358;2022-10-17T08:22:42;9.02;;;4.95;;
41568;SDS011;27283;52.504;13.358;2022-10-17T08:25:21;9.07;;;4.70;;
41568;SDS011;27283;52.504;13.358;2022-10-17T08:27:53;10.13;;;4.72;;
41568;SDS011;27283;52.504;13.358;2022-10-17T08:30:28;9.60;;;4.93;;
41568;SDS011;27283;52.504;13.358;2022-10-17T08:33:00;5.40;;;3.45;;
41568;SDS011;27283;52.504;13.358;2022-10-17T08:35:31;6.75;;;4.25;;
41568;SDS011;27283;52.504;13.358;2022-10-17T08:38:03;10.00;;;4.20;;
41568;SDS011;27283;52.504;13.358;2022-10-17T08:40:40;7.72;;;3.65;;
41568;SDS011;27283;52.504;13.358;2022-10-17T08:43:20;9.55;;;3.90;;
41568;SDS011;27283;52.504;13.358;2022-10-17T08:46:05;7.70;;;3.83;;
41568;SDS011;27283;52.504;13.358;2022-10-17T08:48:39;9.45;;;3.72;;
41568;SDS011;27283;52.504;13.358;2022-10-17T08:51:14;6.38;;;3.83;;
41568;SDS011;27283;52.504;13.358;2022-10-17T08:53:50;8.05;;;3.80;;
41568;SDS011;27283;52.504;13.358;2022-10-17T08:56:26;7.78;;;3.72;;
41568;SDS011;27283;52.504;13.358;2022-10-17T08:59:16;7.25;;;3.72;;
41568;SDS011;27283;52.504;13.358;2022-10-17T09:02:00;7.75;;;3.40;;
41568;SDS011;27283;52.504;13.358;2022-10-17T09:04:41;5.68;;;3.70;;
41568;SDS011;27283;52.504;13.358;2022-10-17T09:07:21;6.63;;;3.80;;
41568;SDS011;27283;52.504;13.358;2022-10-17T09:10:02;7.57;;;3.40;;
41568;SDS011;27283;52.504;13.358;2022-10-17T09:12:42;6.68;;;3.38;;
41568;SDS011;27283;52.504;13.358;2022-10-17T09:15:28;6.63;;;3.50;;
41568;SDS011;27283;52.504;13.358;2022-10-17T09:18:12;6.55;;;3.45;;
41568;SDS011;27283;52.504;13.358;2022-10-17T09:20:52;6.00;;;3.80;;
41568;SDS011;27283;52.504;13.358;2022-10-17T09:23:26;6.03;;;3.28;;
41568;SDS011;27283;52.504;13.358;2022-10-17T09:26:05;8.77;;;3.67;;
41568;SDS011;27283;52.504;13.358;2022-10-17T09:28:41;8.13;;;3.70;;
41568;SDS011;27283;52.504;13.358;2022-10-17T09:31:17;6.60;;;3.38;;
41568;SDS011;27283;52.504;13.358;2022-10-17T09:33:56;6.82;;;3.38;;
41568;SDS011;27283;52.504;13.358;2022-10-17T09:36:33;5.32;;;3.22;;
41568;SDS011;27283;52.504;13.358;2022-10-17T09:39:10;11.65;;;5.10;;
41568;SDS011;27283;52.504;13.358;2022-10-17T09:41:47;8.23;;;4.55;;
41568;SDS011;27283;52.504;13.358;2022-10-17T09:44:21;4.90;;;3.30;;
41568;SDS011;27283;52.504;13.358;2022-10-17T09:49:49;6.70;;;3.42;;
41568;SDS011;27283;52.504;13.358;2022-10-17T09:52:26;13.32;;;5.78;;
41568;SDS011;27283;52.504;13.358;2022-10-17T09:55:00;8.32;;;3.58;;
41568;SDS011;27283;52.504;13.358;2022-10-17T09:57:50;5.22;;;3.40;;
41568;SDS011;27283;52.504;13.358;2022-10-17T10:00:25;5.45;;;3.55;;
41568;SDS011;27283;52.504;13.358;2022-10-17T10:03:09;10.45;;;3.67;;
41568;SDS011;27283;52.504;13.358;2022-10-17T10:08:36;4.38;;;2.95;;
41568;SDS011;27283;52.504;13.358;2022-10-17T10:11:21;5.57;;;3.33;;
41568;SDS011;27283;52.504;13.358;2022-10-17T10:13:56;5.95;;;3.80;;
41568;SDS011;27283;52.504;13.358;2022-10-17T10:16:42;5.70;;;3.15;;
41568;SDS011;27283;52.504;13.358;2022-10-17T10:19:19;5.88;;;3.38;;
41568;SDS011;27283;52.504;13.358;2022-10-17T10:21:59;8.05;;;3.40;;
41568;SDS011;27283;52.504;13.358;2022-10-17T10:24:33;7.68;;;3.33;;
41568;SDS011;27283;52.504;13.358;2022-10-17T10:27:04;7.15;;;3.42;;
41568;SDS011;27283;52.504;13.358;2022-10-17T10:29:42;7.38;;;3.10;;
41568;SDS011;27283;52.504;13.358;2022-10-17T10:32:20;8.13;;;3.20;;
41568;SDS011;27283;52.504;13.358;2022-10-17T10:34:56;7.03;;;3.45;;
41568;SDS011;27283;52.504;13.358;2022-10-17T10:37:34;8.60;;;3.60;;
41568;SDS011;27283;52.504;13.358;2022-10-17T10:40:14;7.35;;;3.30;;
41568;SDS011;27283;52.504;13.358;2022-10-17T10:42:49;6.30;;;3.35;;
41568;SDS011;27283;52.504;13.358;2022-10-17T10:45:23;4.93;;;2.95;;
41568;SDS011;27283;52.504;13.358;2022-10-17T10:48:29;8.30;;;3.53;;
41568;SDS011;27283;52.504;13.358;2022-10-17T10:51:11;4.57;;;2.97;;
41568;SDS011;27283;52.504;13.358;2022-10-17T10:53:53;7.45;;;3.38;;
41568;SDS011;27283;52.504;13.358;2022-10-17T10:56:36;6.95;;;3.35;;
41568;SDS011;27283;52.504;13.358;2022-10-17T10:59:14;7.53;;;3.75;;
41568;SDS011;27283;52.504;13.358;2022-10-17T11:01:54;8.02;;;2.97;;
41568;SDS011;27283;52.504;13.358;2022-10-17T11:04:35;7.90;;;2.80;;
41568;SDS011;27283;52.504;13.358;2022-10-17T11:07:14;7.60;;;3.03;;
41568;SDS011;27283;52.504;13.358;2022-10-17T11:09:55;8.07;;;4.28;;
41568;SDS011;27283;52.504;13.358;2022-10-17T11:12:34;6.45;;;2.90;;
41568;SDS011;27283;52.504;13.358;2022-10-17T11:15:13;7.65;;;3.05;;
41568;SDS011;27283;52.504;13.358;2022-10-17T11:17:54;5.78;;;2.92;;
41568;SDS011;27283;52.504;13.358;2022-10-17T11:20:33;6.28;;;2.63;;
41568;SDS011;27283;52.504;13.358;2022-10-17T11:23:14;3.97;;;2.67;;
41568;SDS011;27283;52.504;13.358;2022-10-17T11:25:54;4.55;;;2.95;;
41568;SDS011;27283;52.504;13.358;2022-10-17T11:28:32;7.00;;;2.75;;
41568;SDS011;27283;52.504;13.358;2022-10-17T11:31:05;6.95;;;3.00;;
41568;SDS011;27283;52.504;13.358;2022-10-17T11:33:44;5.18;;;2.80;;
41568;SDS011;27283;52.504;13.358;2022-10-17T11:36:24;8.43;;;3.38;;
41568;SDS011;27283;52.504;13.358;2022-10-17T11:39:02;6.85;;;3.22;;
41568;SDS011;27283;52.504;13.358;2022-10-17T11:41:40;6.20;;;2.75;;
41568;SDS011;27283;52.504;13.358;2022-10-17T11:44:18;8.45;;;3.17;;
41568;SDS011;27283;52.504;13.358;2022-10-17T11:46:54;5.47;;;3.10;;
41568;SDS011;27283;52.504;13.358;2022-10-17T11:49:32;8.20;;;3.15;;
41568;SDS011;27283;52.504;13.358;2022-10-17T11:52:12;5.78;;;3.00;;
41568;SDS011;27283;52.504;13.358;2022-10-17T11:55:16;6.25;;;3.22;;
41568;SDS011;27283;52.504;13.358;2022-10-17T11:57:58;8.32;;;3.78;;
41568;SDS011;27283;52.504;13.358;2022-10-17T12:00:49;6.07;;;3.20;;
41568;SDS011;27283;52.504;13.358;2022-10-17T12:06:35;5.97;;;3.00;;
41568;SDS011;27283;52.504;13.358;2022-10-17T12:09:17;5.53;;;3.00;;
41568;SDS011;27283;52.504;13.358;2022-10-17T12:12:06;4.28;;;2.70;;
41568;SDS011;27283;52.504;13.358;2022-10-17T12:14:45;7.50;;;3.05;;
41568;SDS011;27283;52.504;13.358;2022-10-17T12:17:22;4.18;;;2.85;;
41568;SDS011;27283;52.504;13.358;2022-10-17T12:23:03;9.85;;;3.10;;
41568;SDS011;27283;52.504;13.358;2022-10-17T12:25:52;9.27;;;3.30;;
41568;SDS011;27283;52.504;13.358;2022-10-17T12:28:32;5.70;;;3.05;;
41568;SDS011;27283;52.504;13.358;2022-10-17T12:31:20;8.60;;;3.17;;
41568;SDS011;27283;52.504;13.358;2022-10-17T12:34:03;5.45;;;3.33;;
41568;SDS011;27283;52.504;13.358;2022-10-17T12:36:36;6.13;;;3.28;;
41568;SDS011;27283;52.504;13.358;2022-10-17T12:42:30;6.43;;;3.22;;
41568;SDS011;27283;52.504;13.358;2022-10-17T12:48:10;9.38;;;3.72;;
41568;SDS011;27283;52.504;13.358;2022-10-17T12:53:56;7.60;;;3.60;;
41568;SDS011;27283;52.504;13.358;2022-10-17T12:56:33;7.90;;;3.40;;
41568;SDS011;27283;52.504;13.358;2022-10-17T12:59:08;5.90;;;3.08;;
41568;SDS011;27283;52.504;13.358;2022-10-17T13:01:47;8.90;;;3.33;;
41568;SDS011;27283;52.504;13.358;2022-10-17T13:04:24;7.85;;;3.10;;
41568;SDS011;27283;52.504;13.358;2022-10-17T13:06:57;7.47;;;3.28;;
41568;SDS011;27283;52.504;13.358;2022-10-17T13:09:31;9.38;;;3.72;;
41568;SDS011;27283;52.504;13.358;2022-10-17T13:12:09;8.25;;;3.50;;
41568;SDS011;27283;52.504;13.358;2022-10-17T13:14:44;6.75;;;3.47;;
41568;SDS011;27283;52.504;13.358;2022-10-17T13:17:22;7.60;;;3.75;;
41568;SDS011;27283;52.504;13.358;2022-10-17T13:19:59;8.43;;;3.88;;
41568;SDS011;27283;52.504;13.358;2022-10-17T13:22:32;8.20;;;3.78;;
41568;SDS011;27283;52.504;13.358;2022-10-17T13:25:05;8.40;;;3.50;;
41568;SDS011;27283;52.504;13.358;2022-10-17T13:27:39;8.52;;;3.60;;
41568;SDS011;27283;52.504;13.358;2022-10-17T13:30:21;6.13;;;3.55;;
41568;SDS011;27283;52.504;13.358;2022-10-17T13:32:59;11.43;;;3.63;;
41568;SDS011;27283;52.504;13.358;2022-10-17T13:35:35;9.15;;;3.97;;
41568;SDS011;27283;52.504;13.358;2022-10-17T13:38:28;11.02;;;3.45;;
41568;SDS011;27283;52.504;13.358;2022-10-17T13:41:09;9.25;;;3.22;;
41568;SDS011;27283;52.504;13.358;2022-10-17T13:44:06;11.15;;;4.60;;
41568;SDS011;27283;52.504;13.358;2022-10-17T13:46:43;6.28;;;3.28;;
41568;SDS011;27283;52.504;13.358;2022-10-17T13:49:17;6.30;;;3.20;;
41568;SDS011;27283;52.504;13.358;2022-10-17T13:51:57;7.93;;;3.30;;
41568;SDS011;27283;52.504;13.358;2022-10-17T13:54:33;7.43;;;3.42;;
41568;SDS011;27283;52.504;13.358;2022-10-17T13:57:16;7.32;;;4.03;;
41568;SDS011;27283;52.504;13.358;2022-10-17T13:59:50;10.23;;;4.20;;
41568;SDS011;27283;52.504;13.358;2022-10-17T14:02:26;7.63;;;3.47;;
41568;SDS011;27283;52.504;13.358;2022-10-17T14:05:00;10.63;;;3.53;;
41568;SDS011;27283;52.504;13.358;2022-10-17T14:07:52;6.97;;;3.30;;
41568;SDS011;27283;52.504;13.358;2022-10-17T14:10:40;5.30;;;2.83;;
41568;SDS011;27283;52.504;13.358;2022-10-17T14:13:30;4.03;;;2.90;;
41568;SDS011;27283;52.504;13.358;2022-10-17T14:16:08;8.23;;;3.83;;
41568;SDS011;27283;52.504;13.358;2022-10-17T14:18:40;7.25;;;3.13;;
41568;SDS011;27283;52.504;13.358;2022-10-17T14:21:18;7.65;;;3.28;;
41568;SDS011;27283;52.504;13.358;2022-10-17T14:24:15;9.73;;;3.22;;
41568;SDS011;27283;52.504;13.358;2022-10-17T14:26:59;8.20;;;3.05;;
41568;SDS011;27283;52.504;13.358;2022-10-17T14:29:48;5.82;;;3.05;;
41568;SDS011;27283;52.504;13.358;2022-10-17T14:32:22;7.97;;;3.30;;
41568;SDS011;27283;52.504;13.358;2022-10-17T14:34:54;13.23;;;3.53;;
41568;SDS011;27283;52.504;13.358;2022-10-17T14:37:49;8.57;;;3.83;;
41568;SDS011;27283;52.504;13.358;2022-10-17T14:40:26;6.80;;;3.45;;
41568;SDS011;27283;52.504;13.358;2022-10-17T14:43:01;9.00;;;3.25;;
41568;SDS011;27283;52.504;13.358;2022-10-17T14:45:36;6.20;;;3.50;;
41568;SDS011;27283;52.504;13.358;2022-10-17T14:48:13;9.90;;;3.20;;
41568;SDS011;27283;52.504;13.358;2022-10-17T14:53:43;9.73;;;4.07;;
41568;SDS011;27283;52.504;13.358;2022-10-17T14:56:39;7.35;;;3.47;;
41568;SDS011;27283;52.504;13.358;2022-10-17T14:59:13;10.27;;;3.92;;
41568;SDS011;27283;52.504;13.358;2022-10-17T15:02:13;6.75;;;3.25;;
41568;SDS011;27283;52.504;13.358;2022-10-17T15:04:46;8.10;;;3.40;;
41568;SDS011;27283;52.504;13.358;2022-10-17T15:07:18;10.80;;;3.60;;
41568;SDS011;27283;52.504;13.358;2022-10-17T15:09:52;7.20;;;4.28;;
41568;SDS011;27283;52.504;13.358;2022-10-17T15:12:27;7.00;;;4.10;;
41568;SDS011;27283;52.504;13.358;2022-10-17T15:15:00;10.50;;;3.90;;
41568;SDS011;27283;52.504;13.358;2022-10-17T15:17:32;8.95;;;3.90;;
41568;SDS011;27283;52.504;13.358;2022-10-17T15:20:08;8.23;;;4.25;;
41568;SDS011;27283;52.504;13.358;2022-10-17T15:22:45;13.18;;;4.50;;
41568;SDS011;27283;52.504;13.358;2022-10-17T15:25:18;12.45;;;5.13;;
41568;SDS011;27283;52.504;13.358;2022-10-17T15:27:54;12.90;;;5.20;;
41568;SDS011;27283;52.504;13.358;2022-10-17T15:30:28;11.07;;;5.13;;
41568;SDS011;27283;52.504;13.358;2022-10-17T15:33:02;12.20;;;5.18;;
41568;SDS011;27283;52.504;13.358;2022-10-17T15:35:35;13.80;;;5.60;;
41568;SDS011;27283;52.504;13.358;2022-10-17T15:38:10;12.32;;;5.50;;
41568;SDS011;27283;52.504;13.358;2022-10-17T15:40:47;11.85;;;5.50;;
41568;SDS011;27283;52.504;13.358;2022-10-17T15:43:22;14.23;;;5.88;;
41568;SDS011;27283;52.504;13.358;2022-10-17T15:45:55;15.27;;;6.10;;
41568;SDS011;27283;52.504;13.358;2022-10-17T15:48:28;11.77;;;5.40;;
41568;SDS011;27283;52.504;13.358;2022-10-17T15:51:02;10.90;;;4.93;;
41568;SDS011;27283;52.504;13.358;2022-10-17T15:53:35;12.25;;;5.30;;
41568;SDS011;27283;52.504;13.358;2022-10-17T15:56:13;13.30;;;5.43;;
41568;SDS011;27283;52.504;13.358;2022-10-17T15:58:53;8.80;;;4.45;;